Terminal Aerodrome Forecast
Issued by NWS

Home | Current Version | Previous Version | Text Only | Print | Product List | Glossary On
Versions: 1 2 3 4 5 6 7 8 9 10 11 12 13 14 15 16 17 18 19 20 21 22 23
000
FTUS44 KOUN 012320
TAFGAG
TAF
KGAG 012320Z 0200/0224 22013G21KT P6SM SCT080 SCT250
     FM020100 19012KT P6SM FEW080 BKN250
     FM020400 14007KT P6SM SCT250
     FM021000 VRB06KT P6SM BKN250
     FM021500 10007KT P6SM SCT080 BKN250 PROB30 0218/0222 5SM -TSRA
      BKN080CB=

USA.gov is the U.S. government's official web portal to all federal, state and local government web resources and services.